createdAt,value
2022-11-05T00:01:16.600Z,17.38
2022-11-05T00:06:37.946Z,17.03
2022-11-05T00:11:59.248Z,18.27
2022-11-05T00:17:01.985Z,15.57
2022-11-05T00:22:22.889Z,17.60
2022-11-05T00:27:25.627Z,16.48
2022-11-05T00:32:28.545Z,17.73
2022-11-05T00:37:31.204Z,17.23
2022-11-05T00:42:52.002Z,17.50
2022-11-05T00:48:13.054Z,17.27
2022-11-05T00:53:15.684Z,18.80
2022-11-05T00:58:20.210Z,17.57
2022-11-05T01:03:28.347Z,19.05
2022-11-05T01:08:31.101Z,18.10
2022-11-05T01:13:33.719Z,17.40
2022-11-05T01:18:39.691Z,20.10
2022-11-05T01:23:42.598Z,20.60
2022-11-05T01:28:45.595Z,21.52
2022-11-05T01:33:48.437Z,21.50
2022-11-05T01:38:51.112Z,20.08
2022-11-05T01:43:57.539Z,20.23
2022-11-05T01:49:14.061Z,18.23
2022-11-05T01:54:22.259Z,17.75
2022-11-05T01:59:34.420Z,18.07
2022-11-05T02:04:50.856Z,18.52
2022-11-05T02:10:06.095Z,17.13
2022-11-05T02:15:14.186Z,15.63
2022-11-05T02:20:38.701Z,15.43
2022-11-05T02:26:09.303Z,13.20
2022-11-05T02:31:36.591Z,10.70
2022-11-05T02:37:15.715Z,9.35
2022-11-05T02:42:35.225Z,8.87
2022-11-05T02:48:05.452Z,6.93
2022-11-05T02:53:28.297Z,4.77
2022-11-05T02:58:31.177Z,3.55
2022-11-05T03:03:46.338Z,3.90
2022-11-05T03:09:07.309Z,4.27
2022-11-05T03:14:17.745Z,3.92
2022-11-05T03:19:32.642Z,4.57
2022-11-05T03:24:38.520Z,3.75
2022-11-05T03:29:53.250Z,3.80
2022-11-05T03:35:24.876Z,3.30
2022-11-05T03:40:30.036Z,3.55
2022-11-05T03:45:37.842Z,3.27
2022-11-05T03:50:42.505Z,3.40
2022-11-05T03:55:56.983Z,3.75
2022-11-05T04:01:03.464Z,2.80
2022-11-05T04:06:27.489Z,2.95
2022-11-05T04:11:48.719Z,3.00
2022-11-05T04:17:12.128Z,3.00
2022-11-05T04:22:33.038Z,3.55
2022-11-05T04:27:36.186Z,3.20
2022-11-05T04:32:38.846Z,3.35
2022-11-05T04:37:41.393Z,3.27
2022-11-05T04:42:43.978Z,2.60
2022-11-05T04:47:46.669Z,2.58
2022-11-05T04:52:49.467Z,2.30
2022-11-05T04:57:53.354Z,2.63
2022-11-05T05:02:56.068Z,1.93
2022-11-05T05:08:06.005Z,1.90
2022-11-05T05:13:11.484Z,1.58
2022-11-05T05:18:14.485Z,1.80
2022-11-05T05:23:17.083Z,2.00
2022-11-05T05:28:19.635Z,1.70
2022-11-05T05:33:22.307Z,1.63
2022-11-05T05:38:24.954Z,2.08
2022-11-05T05:43:32.369Z,1.60
2022-11-05T05:48:35.257Z,1.70
2022-11-05T05:53:38.911Z,1.43
2022-11-05T05:58:41.844Z,2.22
2022-11-05T06:03:44.647Z,1.90
2022-11-05T06:08:48.044Z,1.63
2022-11-05T06:13:50.835Z,2.50
2022-11-05T06:18:53.621Z,2.60
2022-11-05T06:23:56.766Z,2.42
2022-11-05T06:28:59.525Z,2.50
2022-11-05T06:34:03.046Z,2.40
2022-11-05T06:39:06.018Z,1.48
2022-11-05T06:44:08.753Z,2.13
2022-11-05T06:49:11.424Z,2.45
2022-11-05T06:54:14.517Z,2.08
2022-11-05T06:59:17.414Z,2.30
2022-11-05T07:04:20.173Z,2.15
2022-11-05T07:09:23.223Z,2.43
2022-11-05T07:14:27.655Z,2.20
2022-11-05T07:19:30.633Z,2.20
2022-11-05T07:24:33.314Z,2.37
2022-11-05T07:29:36.106Z,2.58
2022-11-05T07:34:38.867Z,2.60
2022-11-05T07:39:41.614Z,2.63
2022-11-05T07:44:44.356Z,2.60
2022-11-05T07:49:47.114Z,2.40
2022-11-05T07:54:49.844Z,3.08
2022-11-05T07:59:52.620Z,3.10
2022-11-05T08:04:55.424Z,3.08
2022-11-05T08:09:58.154Z,3.25
2022-11-05T08:15:00.809Z,3.63
2022-11-05T08:20:04.046Z,3.95
2022-11-05T08:25:07.544Z,3.43
2022-11-05T08:30:10.781Z,3.65
2022-11-05T08:35:13.406Z,3.28
2022-11-05T08:40:16.222Z,2.97
2022-11-05T08:45:19.003Z,3.53
2022-11-05T08:50:21.745Z,3.60
2022-11-05T08:55:24.964Z,3.63
2022-11-05T09:00:29.607Z,3.58
2022-11-05T09:05:38.315Z,3.37
2022-11-05T09:10:42.336Z,4.15
2022-11-05T09:15:45.347Z,3.93
2022-11-05T09:20:48.390Z,4.03
2022-11-05T09:25:51.302Z,3.88
2022-11-05T09:30:54.244Z,4.30
2022-11-05T09:36:00.266Z,4.18
2022-11-05T09:41:21.562Z,3.67
2022-11-05T09:46:26.844Z,3.83
2022-11-05T09:51:30.779Z,3.80
2022-11-05T09:56:41.230Z,4.10
2022-11-05T10:01:45.597Z,4.05
2022-11-05T10:07:04.444Z,4.60
2022-11-05T10:12:32.372Z,3.42
2022-11-05T10:17:39.505Z,3.70
2022-11-05T10:22:48.175Z,3.70
2022-11-05T10:27:55.472Z,4.03
2022-11-05T10:33:00.964Z,4.00
2022-11-05T10:38:03.985Z,3.22
2022-11-05T10:43:11.471Z,4.72
2022-11-05T10:48:23.278Z,2.67
2022-11-05T10:53:35.184Z,4.32
2022-11-05T10:58:42.366Z,4.00
2022-11-05T11:03:46.824Z,4.05
2022-11-05T11:08:50.646Z,4.45
2022-11-05T11:14:01.079Z,4.47
2022-11-05T11:19:04.360Z,4.28
2022-11-05T11:24:28.517Z,4.23
2022-11-05T11:29:41.969Z,3.55
2022-11-05T11:34:53.196Z,4.93
2022-11-05T11:40:13.904Z,4.47
2022-11-05T11:45:21.263Z,4.15
2022-11-05T11:50:44.298Z,4.77
2022-11-05T11:55:56.124Z,4.88
2022-11-05T12:01:31.928Z,4.60
2022-11-05T12:07:02.115Z,6.03
2022-11-05T12:12:16.009Z,6.10
2022-11-05T12:17:34.334Z,6.00
2022-11-05T12:22:52.346Z,5.53
2022-11-05T12:28:10.745Z,5.03
2022-11-05T12:33:47.285Z,5.03
2022-11-05T12:39:39.467Z,6.63
2022-11-05T12:45:18.586Z,6.40
2022-11-05T12:50:32.116Z,6.95
2022-11-05T12:55:45.518Z,6.57
2022-11-05T13:00:59.602Z,7.20
2022-11-05T13:06:14.495Z,6.15
2022-11-05T13:11:27.186Z,6.87
2022-11-05T13:16:49.834Z,6.45
2022-11-05T13:22:21.719Z,6.55
2022-11-05T13:27:43.534Z,7.17
2022-11-05T13:32:53.640Z,7.72
2022-11-05T13:38:22.894Z,8.40
2022-11-05T13:43:41.543Z,8.23
2022-11-05T13:49:18.947Z,8.57
2022-11-05T13:54:41.436Z,7.20
2022-11-05T14:00:02.445Z,8.95
2022-11-05T14:05:09.296Z,9.50
2022-11-05T14:10:45.946Z,8.93
2022-11-05T14:16:10.737Z,8.27
2022-11-05T14:21:33.161Z,9.30
2022-11-05T14:26:36.021Z,9.02
2022-11-05T14:32:07.777Z,8.60
2022-11-05T14:37:10.557Z,8.57
2022-11-05T14:42:22.456Z,8.02
2022-11-05T14:47:29.255Z,8.30
2022-11-05T14:52:32.583Z,8.82
2022-11-05T14:57:55.624Z,8.70
2022-11-05T15:03:01.695Z,9.77
2022-11-05T15:08:28.496Z,9.35
2022-11-05T15:13:40.734Z,9.77
2022-11-05T15:18:47.455Z,9.50
2022-11-05T15:23:54.288Z,10.03
2022-11-05T15:28:57.575Z,9.40
2022-11-05T15:34:20.125Z,9.77
2022-11-05T15:39:30.153Z,10.60
2022-11-05T15:44:41.294Z,10.32
2022-11-05T15:49:47.175Z,10.50
2022-11-05T15:55:19.256Z,11.80
2022-11-05T16:00:25.442Z,10.75
2022-11-05T16:05:42.093Z,11.60
2022-11-05T16:10:52.476Z,12.40
2022-11-05T16:15:57.301Z,11.30
2022-11-05T16:21:02.475Z,11.52
2022-11-05T16:26:05.233Z,10.98
2022-11-05T16:31:08.025Z,9.77
2022-11-05T16:36:11.467Z,10.10
2022-11-05T16:41:20.073Z,10.70
2022-11-05T16:46:24.379Z,10.45
2022-11-05T16:51:28.624Z,10.90
2022-11-05T16:56:31.885Z,6.07
2022-11-05T17:01:35.832Z,8.40
2022-11-05T17:06:38.740Z,10.50
2022-11-05T17:11:42.467Z,11.20
2022-11-05T17:16:45.606Z,14.07
2022-11-05T17:21:48.765Z,8.83
2022-11-05T17:26:51.664Z,7.88
2022-11-05T17:31:54.488Z,8.13
2022-11-05T17:36:57.206Z,8.30
2022-11-05T17:42:00.080Z,8.10
2022-11-05T17:47:03.065Z,8.20
2022-11-05T17:52:05.974Z,8.23
2022-11-05T17:57:08.794Z,7.77
2022-11-05T18:02:12.645Z,8.00
2022-11-05T18:07:15.665Z,8.05
2022-11-05T18:12:18.570Z,8.90
2022-11-05T18:17:21.280Z,9.15
2022-11-05T18:22:24.105Z,8.47
2022-11-05T18:27:27.863Z,8.93
2022-11-05T18:32:30.926Z,8.48
2022-11-05T18:37:33.659Z,8.87
2022-11-05T18:42:36.453Z,7.63
2022-11-05T18:47:39.593Z,8.20
2022-11-05T18:52:42.521Z,9.30
2022-11-05T18:57:45.254Z,12.23
2022-11-05T19:02:48.532Z,12.03
2022-11-05T19:07:53.815Z,11.20
2022-11-05T19:12:56.730Z,12.67
2022-11-05T19:17:59.834Z,13.50
2022-11-05T19:23:03.236Z,12.40
2022-11-05T19:28:06.185Z,12.67
2022-11-05T19:33:11.344Z,12.77
2022-11-05T19:38:14.496Z,11.07
2022-11-05T19:43:17.489Z,11.32
2022-11-05T19:48:21.315Z,12.30
2022-11-05T19:53:24.335Z,12.33
2022-11-05T19:58:27.056Z,12.30
2022-11-05T20:03:30.308Z,12.27
2022-11-05T20:08:43.489Z,12.77
2022-11-05T20:13:57.875Z,12.50
2022-11-05T20:19:00.695Z,11.43
2022-11-05T20:24:04.375Z,11.77
2022-11-05T20:29:07.298Z,11.23
2022-11-05T20:34:10.749Z,12.02
2022-11-05T20:39:13.685Z,12.07
2022-11-05T20:44:16.465Z,11.10
2022-11-05T20:49:24.989Z,11.48
2022-11-05T20:54:28.325Z,11.20
2022-11-05T20:59:31.050Z,11.98
2022-11-05T21:04:33.975Z,11.57
2022-11-05T21:09:36.756Z,12.47
2022-11-05T21:14:41.378Z,12.40
2022-11-05T21:19:44.424Z,12.83
2022-11-05T21:24:47.106Z,12.63
2022-11-05T21:29:49.954Z,12.23
2022-11-05T21:34:52.927Z,11.13
2022-11-05T21:39:55.690Z,11.32
2022-11-05T21:45:00.498Z,11.13
2022-11-05T21:50:04.204Z,10.95
2022-11-05T21:55:25.913Z,11.55
2022-11-05T22:00:29.726Z,10.50
2022-11-05T22:05:32.526Z,10.70
2022-11-05T22:10:35.226Z,12.50
2022-11-05T22:15:38.028Z,10.40
2022-11-05T22:20:40.916Z,11.27
2022-11-05T22:25:43.835Z,11.33
2022-11-05T22:30:46.686Z,12.10
2022-11-05T22:35:49.575Z,12.77
2022-11-05T22:40:52.475Z,12.80
2022-11-05T22:45:55.195Z,10.93
2022-11-05T22:51:04.944Z,10.93
2022-11-05T22:56:20.162Z,11.77
2022-11-05T23:01:24.242Z,12.03
2022-11-05T23:06:54.464Z,12.00
2022-11-05T23:11:57.682Z,10.98
2022-11-05T23:17:18.778Z,10.87
2022-11-05T23:22:48.493Z,12.25
2022-11-05T23:27:53.680Z,10.50
2022-11-05T23:32:56.744Z,10.73
2022-11-05T23:38:18.055Z,11.75
2022-11-05T23:43:39.465Z,10.90
2022-11-05T23:48:42.133Z,11.00
2022-11-05T23:53:45.265Z,11.70
2022-11-05T23:58:48.034Z,10.35
